Time;durP1;ratioP1;P1;durP2;ratioP2;P2;SDS_P1;SDS_P2;PMS_P1;PMS_P2;Temp;Humidity;BMP_temperature;BMP_pressure;BME280_temperature;BME280_humidity;BME280_pressure;Samples;Min_cycle;Max_cycle;Signal;HPM_P1;HPM_P2
2022/03/09 00:02:24;;;;;;;13.55;8.20;;;;;;;5.61;45.33;102091.53;5054299;28;20499;-44
2022/03/09 00:04:51;;;;;;;12.30;7.63;;;;;;;5.60;45.33;102097.97;5038941;28;20052;-42
2022/03/09 00:07:19;;;;;;;12.45;7.90;;;;;;;5.52;45.53;102091.69;5068991;28;20390;-44
2022/03/09 00:09:47;;;;;;;12.90;7.57;;;;;;;5.51;45.78;102098.16;5075559;28;20402;-43
2022/03/09 00:12:14;;;;;;;16.70;7.38;;;;;;;5.49;45.58;102100.22;5075905;28;20046;-43
2022/03/09 00:14:42;;;;;;;11.45;7.70;;;;;;;5.42;45.58;102096.66;5076114;28;20037;-43
2022/03/09 00:17:09;;;;;;;14.02;7.55;;;;;;;5.36;45.86;102099.34;5068988;28;20048;-45
2022/03/09 00:19:37;;;;;;;13.10;7.38;;;;;;;5.29;46.17;102102.00;5056122;28;20491;-42
2022/03/09 00:22:05;;;;;;;16.10;7.53;;;;;;;5.25;46.16;102101.59;5072205;28;20049;-43
2022/03/09 00:24:33;;;;;;;12.40;7.40;;;;;;;5.26;46.33;102097.00;5076141;28;20068;-46
2022/03/09 00:27:01;;;;;;;12.68;7.60;;;;;;;5.28;46.24;102100.34;5075125;28;20048;-43
2022/03/09 00:29:31;;;;;;;13.57;7.35;;;;;;;5.27;46.20;102106.78;5057163;28;20044;-44
2022/03/09 00:31:59;;;;;;;11.73;7.32;;;;;;;5.25;46.17;102100.75;5075989;28;20052;-43
2022/03/09 00:34:26;;;;;;;11.73;7.60;;;;;;;5.20;46.34;102100.53;5075916;28;20044;-41
2022/03/09 00:36:55;;;;;;;16.42;7.70;;;;;;;5.18;46.40;102097.19;5074484;28;20041;-43
2022/03/09 00:39:22;;;;;;;13.43;7.80;;;;;;;5.17;46.13;102090.09;5058086;28;20044;-43
2022/03/09 00:41:50;;;;;;;13.13;7.78;;;;;;;5.13;46.48;102090.50;5057271;28;20395;-44
2022/03/09 00:44:18;;;;;;;16.38;7.80;;;;;;;5.11;46.18;102091.75;5037627;28;20045;-41
2022/03/09 00:46:48;;;;;;;12.25;7.57;;;;;;;5.09;46.48;102094.63;5056723;28;20079;-41
2022/03/09 00:49:16;;;;;;;12.95;8.32;;;;;;;5.09;46.30;102094.63;5055740;28;20177;-40
2022/03/09 00:51:44;;;;;;;10.93;7.55;;;;;;;5.07;46.15;102090.47;5049940;28;20411;-42
2022/03/09 00:54:11;;;;;;;12.18;7.45;;;;;;;5.05;46.60;102088.00;5057099;28;20049;-41
2022/03/09 00:56:39;;;;;;;20.70;7.45;;;;;;;5.07;46.64;102087.75;5048954;28;20487;-42
2022/03/09 00:59:07;;;;;;;13.32;7.90;;;;;;;5.08;46.65;102092.97;5055784;28;20120;-41
2022/03/09 01:01:34;;;;;;;15.07;7.93;;;;;;;5.07;46.66;102091.28;5056556;28;20055;-41
2022/03/09 01:04:02;;;;;;;13.23;7.93;;;;;;;5.07;46.74;102101.28;5055564;28;20037;-43
2022/03/09 01:06:30;;;;;;;12.88;8.10;;;;;;;5.07;46.65;102102.09;5038212;28;20051;-45
2022/03/09 01:08:59;;;;;;;11.55;7.47;;;;;;;5.08;46.72;102102.97;5055483;28;20052;-45
2022/03/09 01:11:28;;;;;;;12.68;7.50;;;;;;;5.08;46.54;102103.78;5054752;28;20076;-43
2022/03/09 01:13:57;;;;;;;11.55;7.45;;;;;;;5.06;46.60;102105.84;5055282;28;20049;-44
2022/03/09 01:16:24;;;;;;;14.05;8.38;;;;;;;5.06;46.56;102096.91;5056062;28;20041;-45
2022/03/09 01:18:52;;;;;;;13.02;8.43;;;;;;;5.05;46.44;102092.53;5055013;28;20037;-43
2022/03/09 01:21:20;;;;;;;12.95;8.57;;;;;;;5.05;46.40;102087.13;5061162;28;20055;-45
2022/03/09 01:23:47;;;;;;;13.55;8.95;;;;;;;5.03;46.31;102090.06;5074956;28;20044;-45
2022/03/09 01:26:15;;;;;;;13.55;8.20;;;;;;;5.05;46.60;102097.94;5068876;28;20047;-44
2022/03/09 01:28:43;;;;;;;12.30;8.23;;;;;;;5.05;46.47;102082.59;5055642;28;20040;-44
2022/03/09 01:31:10;;;;;;;12.77;8.75;;;;;;;5.03;46.41;102084.66;5037522;28;20211;-44
2022/03/09 01:33:38;;;;;;;13.15;8.30;;;;;;;4.98;46.37;102092.53;5074405;28;20072;-45
2022/03/09 01:36:06;;;;;;;12.23;8.20;;;;;;;4.95;46.47;102089.38;5056643;28;20407;-40
2022/03/09 01:38:35;;;;;;;11.32;8.13;;;;;;;4.91;46.88;102089.78;5040482;28;20052;-45
2022/03/09 01:41:03;;;;;;;17.08;8.93;;;;;;;4.92;46.79;102093.31;5073025;28;20072;-44
2022/03/09 01:43:31;;;;;;;12.20;8.48;;;;;;;4.92;46.76;102087.91;5058059;28;20091;-45
2022/03/09 01:45:59;;;;;;;13.98;8.75;;;;;;;4.87;46.95;102085.78;5053557;28;20052;-45
2022/03/09 01:48:28;;;;;;;14.90;8.60;;;;;;;4.83;46.58;102089.09;5054541;28;20037;-45
2022/03/09 01:50:55;;;;;;;14.57;8.48;;;;;;;4.80;47.24;102081.41;5054412;28;20041;-44
2022/03/09 01:53:23;;;;;;;11.98;8.55;;;;;;;4.78;46.77;102075.34;5046666;28;20049;-44
2022/03/09 01:55:51;;;;;;;13.63;8.38;;;;;;;4.78;47.39;102083.44;5036586;28;20033;-43
2022/03/09 01:58:18;;;;;;;17.73;8.70;;;;;;;4.79;47.27;102080.56;5036584;28;20098;-44
2022/03/09 02:00:46;;;;;;;16.45;8.90;;;;;;;4.81;46.87;102078.50;5036409;28;20049;-45
2022/03/09 02:03:14;;;;;;;16.35;9.15;;;;;;;4.83;46.86;102072.88;5070119;28;20048;-44
2022/03/09 02:05:42;;;;;;;17.95;9.10;;;;;;;4.83;46.77;102068.31;5073031;28;20049;-47
2022/03/09 02:10:56;;;;;;;15.48;8.57;;;;;;;4.89;46.79;102072.94;5074212;28;20087;-46
2022/03/09 02:13:23;;;;;;;13.55;8.63;;;;;;;4.91;46.79;102065.47;5069549;28;20047;-45
2022/03/09 02:15:51;;;;;;;14.10;8.95;;;;;;;4.95;46.69;102065.06;5074011;28;20040;-44
2022/03/09 02:18:19;;;;;;;13.60;9.07;;;;;;;4.97;46.25;102068.41;5070584;28;20047;-45
2022/03/09 02:20:48;;;;;;;14.15;8.45;;;;;;;4.95;46.19;102065.88;5072384;28;20131;-47
2022/03/09 02:23:16;;;;;;;13.05;8.98;;;;;;;4.95;46.04;102076.69;5064795;28;20037;-46
2022/03/09 02:25:44;;;;;;;16.85;9.15;;;;;;;4.94;46.12;102069.63;5035907;28;20080;-44
2022/03/09 02:28:11;;;;;;;13.68;8.95;;;;;;;4.93;46.36;102072.53;5053569;28;20510;-44
2022/03/09 02:30:39;;;;;;;16.92;8.90;;;;;;;4.91;46.16;102070.03;5036125;28;20036;-45
2022/03/09 02:33:07;;;;;;;12.57;8.30;;;;;;;4.87;46.31;102071.47;5055601;28;20053;-46
2022/03/09 02:35:35;;;;;;;18.65;9.52;;;;;;;4.82;46.52;102071.22;5053843;28;20070;-44
2022/03/09 02:38:02;;;;;;;14.50;8.52;;;;;;;4.79;46.34;102068.94;5051257;28;20041;-45
2022/03/09 02:40:30;;;;;;;17.05;8.38;;;;;;;4.79;47.06;102074.34;5053405;28;20422;-43
2022/03/09 02:42:58;;;;;;;15.40;8.25;;;;;;;4.75;47.15;102065.78;5019028;28;20555;-44
2022/03/09 02:45:25;;;;;;;14.85;9.23;;;;;;;4.69;47.24;102066.59;5056554;28;20051;-44
2022/03/09 02:47:53;;;;;;;15.02;8.25;;;;;;;4.67;47.33;102060.56;5073450;28;20411;-45
2022/03/09 02:50:21;;;;;;;12.82;8.98;;;;;;;4.66;47.08;102061.56;5073219;28;20036;-44
2022/03/09 02:52:48;;;;;;;13.80;8.40;;;;;;;4.67;46.72;102058.69;5055207;28;20045;-44
2022/03/09 02:55:16;;;;;;;16.20;8.85;;;;;;;4.68;47.18;102056.81;5064802;28;20040;-42
2022/03/09 02:57:44;;;;;;;16.15;8.63;;;;;;;4.68;46.79;102060.34;5038814;28;20128;-41
2022/03/09 03:00:12;;;;;;;15.93;8.75;;;;;;;4.67;46.72;102047.88;5053228;28;20084;-41
2022/03/09 03:02:40;;;;;;;14.02;8.23;;;;;;;4.67;46.42;102047.88;5052337;28;20171;-41
2022/03/09 03:05:09;;;;;;;12.50;7.72;;;;;;;4.66;46.67;102051.59;5052131;28;20041;-42
2022/03/09 03:07:37;;;;;;;15.40;8.48;;;;;;;4.65;46.75;102052.66;5064162;28;20072;-44
2022/03/09 03:10:05;;;;;;;17.05;8.48;;;;;;;4.65;47.00;102049.94;5070695;28;20035;-44
2022/03/09 03:12:33;;;;;;;17.15;8.05;;;;;;;4.58;47.14;102049.06;5054473;28;20078;-45
2022/03/09 03:15:02;;;;;;;14.40;8.30;;;;;;;4.48;47.56;102048.59;5050719;28;20120;-43
2022/03/09 03:17:30;;;;;;;13.60;8.13;;;;;;;4.45;47.21;102062.50;5061618;28;20049;-43
2022/03/09 03:19:58;;;;;;;12.75;8.02;;;;;;;4.42;47.76;102061.00;5051977;28;20625;-44
2022/03/09 03:22:25;;;;;;;12.98;8.18;;;;;;;4.39;47.93;102066.78;5047748;28;20048;-44
2022/03/09 03:24:53;;;;;;;17.55;8.52;;;;;;;4.34;47.51;102053.06;5046453;28;20048;-42
2022/03/09 03:27:21;;;;;;;13.02;7.90;;;;;;;4.30;48.05;102064.44;5034419;28;20393;-45
2022/03/09 03:29:50;;;;;;;14.23;7.93;;;;;;;4.28;47.96;102059.22;5051844;28;20045;-45
2022/03/09 03:32:17;;;;;;;13.98;7.97;;;;;;;4.25;47.83;102062.31;5052075;28;20041;-44
2022/03/09 03:34:45;;;;;;;13.57;8.27;;;;;;;4.21;47.82;102059.19;5060869;28;20040;-45
2022/03/09 03:37:13;;;;;;;13.30;8.18;;;;;;;4.13;48.39;102056.63;5037313;28;20041;-43
2022/03/09 03:39:40;;;;;;;13.07;8.48;;;;;;;4.09;48.84;102052.66;5051909;28;20399;-46
2022/03/09 03:42:08;;;;;;;14.13;9.00;;;;;;;4.10;48.37;102054.31;5051525;28;20051;-44
2022/03/09 03:44:36;;;;;;;13.82;8.95;;;;;;;4.09;49.07;102052.66;5052674;28;20061;-45
2022/03/09 03:47:04;;;;;;;14.35;8.48;;;;;;;4.03;48.76;102046.16;5052834;28;20549;-45
2022/03/09 03:49:31;;;;;;;17.98;8.35;;;;;;;3.97;49.35;102048.78;5051578;28;20041;-45
2022/03/09 03:51:59;;;;;;;12.93;8.57;;;;;;;3.94;48.85;102049.19;5050364;28;20045;-45
2022/03/09 03:54:27;;;;;;;14.45;8.82;;;;;;;3.91;49.50;102053.13;5052874;28;20399;-45
2022/03/09 03:56:57;;;;;;;13.95;8.50;;;;;;;3.90;48.99;102048.75;5071865;28;20049;-46
2022/03/09 03:59:25;;;;;;;12.82;8.55;;;;;;;3.90;49.44;102047.94;5069678;28;20499;-45
2022/03/09 04:01:53;;;;;;;13.30;8.27;;;;;;;3.81;49.51;102058.81;5016233;28;1087354;-44
2022/03/09 04:04:21;;;;;;;19.88;8.93;;;;;;;3.76;49.47;102050.50;5072330;28;20043;-45
2022/03/09 04:06:48;;;;;;;14.63;8.63;;;;;;;3.76;50.25;102045.09;5044248;28;20482;-42
2022/03/09 04:09:16;;;;;;;15.95;8.90;;;;;;;3.78;49.28;102048.44;5052574;28;20079;-43
2022/03/09 04:11:44;;;;;;;14.88;8.82;;;;;;;3.76;50.15;102047.78;5054134;28;20056;-45
2022/03/09 04:14:11;;;;;;;15.50;8.20;;;;;;;3.76;49.09;102049.66;5072394;28;20044;-48
2022/03/09 04:16:39;;;;;;;13.30;8.30;;;;;;;3.72;49.95;102057.28;5060892;28;20037;-44
2022/03/09 04:19:06;;;;;;;14.45;7.80;;;;;;;3.69;49.69;102052.28;5052547;28;20044;-44
2022/03/09 04:21:34;;;;;;;14.63;8.15;;;;;;;3.68;49.57;102053.31;5052520;28;20072;-45
2022/03/09 04:24:05;;;;;;;12.77;8.43;;;;;;;3.68;50.01;102056.00;5053281;28;20499;-42
2022/03/09 04:26:33;;;;;;;13.43;8.30;;;;;;;3.57;49.92;102062.72;5066167;28;20123;-43
2022/03/09 04:29:01;;;;;;;13.80;8.07;;;;;;;3.46;50.75;102065.09;5053156;28;20045;-44
2022/03/09 04:31:29;;;;;;;14.75;8.48;;;;;;;3.44;50.42;102059.03;5055596;28;20095;-43
2022/03/09 04:33:57;;;;;;;17.02;8.45;;;;;;;3.46;50.59;102055.13;5056037;28;20087;-44
2022/03/09 04:36:25;;;;;;;14.23;8.25;;;;;;;3.48;50.35;102054.94;5056220;28;20033;-44
2022/03/09 04:38:52;;;;;;;17.13;9.02;;;;;;;3.51;50.49;102057.25;5056724;28;20037;-46
2022/03/09 04:41:20;;;;;;;15.90;8.45;;;;;;;3.45;50.61;102052.66;5055774;28;20037;-44
2022/03/09 04:43:48;;;;;;;12.35;8.20;;;;;;;3.39;50.88;102055.09;5055511;28;20084;-48
2022/03/09 04:46:16;;;;;;;13.57;8.65;;;;;;;3.38;50.96;102053.41;5038082;28;20037;-44
2022/03/09 04:48:44;;;;;;;13.95;8.02;;;;;;;3.40;50.94;102055.91;5070284;28;20086;-45
2022/03/09 04:51:12;;;;;;;12.35;8.00;;;;;;;3.41;50.69;102061.09;5058526;28;20076;-44
2022/03/09 04:53:40;;;;;;;13.23;8.18;;;;;;;3.46;50.70;102065.09;5055292;28;20048;-45
2022/03/09 04:56:07;;;;;;;16.38;8.77;;;;;;;3.51;51.14;102068.03;5057887;28;20037;-42
2022/03/09 04:58:35;;;;;;;15.52;8.63;;;;;;;3.53;51.28;102072.22;5075265;28;20072;-45
2022/03/09 05:01:03;;;;;;;16.40;9.40;;;;;;;3.54;51.11;102063.13;5075106;28;20040;-44
2022/03/09 05:03:33;;;;;;;15.48;9.20;;;;;;;3.54;50.94;102057.72;5057660;28;20045;-45
2022/03/09 05:06:05;;;;;;;17.65;8.68;;;;;;;3.55;50.65;102058.56;5055140;28;20060;-46
2022/03/09 05:08:34;;;;;;;14.60;8.32;;;;;;;3.55;50.82;102059.38;5040233;28;20041;-45
2022/03/09 05:11:02;;;;;;;12.45;8.30;;;;;;;3.53;51.03;102057.91;5057061;28;20045;-44
2022/03/09 05:13:33;;;;;;;15.80;8.43;;;;;;;3.47;51.55;102056.00;5074848;28;20055;-45
2022/03/09 05:16:00;;;;;;;13.50;8.68;;;;;;;3.41;51.17;102058.41;5055924;28;20052;-45
2022/03/09 05:18:29;;;;;;;13.85;8.57;;;;;;;3.38;51.34;102055.25;5068687;28;20048;-43
2022/03/09 05:20:57;;;;;;;14.88;8.43;;;;;;;3.34;51.47;102062.03;5075225;28;20079;-44
2022/03/09 05:23:25;;;;;;;16.08;8.75;;;;;;;3.34;51.92;102064.75;5038419;28;20047;-45
2022/03/09 05:25:52;;;;;;;15.85;8.68;;;;;;;3.32;51.54;102064.94;5054910;28;20037;-44
2022/03/09 05:28:20;;;;;;;19.20;8.98;;;;;;;3.30;51.74;102067.00;5055917;28;20068;-44
2022/03/09 05:30:48;;;;;;;16.83;8.80;;;;;;;3.25;51.25;102063.16;5054553;28;20037;-43
2022/03/09 05:33:15;;;;;;;12.90;8.43;;;;;;;3.22;51.46;102069.78;5055797;28;20470;-43
2022/03/09 05:35:44;;;;;;;15.63;8.90;;;;;;;3.20;51.54;102067.28;5053366;28;20047;-45
2022/03/09 05:38:12;;;;;;;15.38;9.40;;;;;;;3.25;51.67;102063.16;5054982;28;20041;-46
2022/03/09 05:40:41;;;;;;;17.85;8.27;;;;;;;3.27;51.47;102072.75;5053455;28;20120;-43
2022/03/09 05:43:08;;;;;;;19.30;8.48;;;;;;;3.28;51.49;102071.72;5055578;28;20040;-46
2022/03/09 05:45:36;;;;;;;13.82;8.70;;;;;;;3.29;51.34;102075.25;5056636;28;20093;-45
2022/03/09 05:48:04;;;;;;;13.57;8.75;;;;;;;3.28;51.22;102085.19;5064161;28;20150;-45
2022/03/09 05:50:32;;;;;;;16.55;8.70;;;;;;;3.27;51.30;102083.53;5054439;28;20037;-46
2022/03/09 05:53:03;;;;;;;15.27;8.40;;;;;;;3.25;51.63;102082.03;5055399;28;20106;-45
2022/03/09 05:55:30;;;;;;;15.13;9.45;;;;;;;3.24;51.51;102089.28;5054162;28;20055;-44
2022/03/09 05:57:58;;;;;;;16.42;8.80;;;;;;;3.19;51.29;102091.69;5054370;28;20048;-45
2022/03/09 06:00:25;;;;;;;18.58;8.95;;;;;;;3.15;51.17;102101.16;5054987;28;20048;-45
2022/03/09 06:02:53;;;;;;;14.68;8.93;;;;;;;3.11;52.28;102095.34;5073109;28;20056;-45
2022/03/09 06:05:21;;;;;;;17.63;8.95;;;;;;;3.07;52.14;102102.09;5056521;28;20048;-45
2022/03/09 06:07:50;;;;;;;17.52;9.60;;;;;;;2.99;52.02;102103.06;5062785;28;20499;-42
2022/03/09 06:10:18;;;;;;;15.23;8.88;;;;;;;2.94;52.60;102105.47;5053865;28;20047;-43
2022/03/09 06:12:45;;;;;;;14.90;9.48;;;;;;;2.93;52.48;102102.94;5054693;28;20041;-43
2022/03/09 06:15:13;;;;;;;14.75;8.95;;;;;;;2.94;52.63;102105.47;5053617;28;20135;-45
2022/03/09 06:17:48;;;;;;;18.23;9.23;;;;;;;2.99;52.65;102103.06;5053950;28;20056;-47
2022/03/09 06:20:21;;;;;;;18.65;9.32;;;;;;;3.03;52.34;102105.34;5036141;28;20053;-47
2022/03/09 06:22:49;;;;;;;16.58;9.10;;;;;;;3.05;52.09;102103.31;5053514;28;20048;-45
2022/03/09 06:25:17;;;;;;;16.10;9.43;;;;;;;3.11;51.83;102105.28;5035611;28;20041;-45
2022/03/09 06:27:50;;;;;;;19.15;8.60;;;;;;;3.16;51.86;102105.56;5046100;28;20047;-44
2022/03/09 06:30:25;;;;;;;19.13;9.05;;;;;;;3.18;51.78;102120.50;5073443;28;20552;-47
2022/03/09 06:32:55;;;;;;;16.48;8.45;;;;;;;3.21;51.53;102113.91;5071514;28;20209;-44
2022/03/09 06:35:23;;;;;;;16.67;8.90;;;;;;;3.26;51.20;102118.72;5072284;28;20123;-43
2022/03/09 06:37:51;;;;;;;15.82;8.77;;;;;;;3.28;51.64;102117.50;5055345;28;20036;-43
2022/03/09 06:40:19;;;;;;;14.75;8.38;;;;;;;3.33;51.34;102125.88;5071693;28;20044;-45
2022/03/09 06:42:47;;;;;;;16.45;8.85;;;;;;;3.39;51.44;102124.25;5052983;28;20056;-45
2022/03/09 06:45:14;;;;;;;16.55;8.43;;;;;;;3.42;51.11;102124.75;5053235;28;20069;-45
2022/03/09 06:47:42;;;;;;;15.25;8.68;;;;;;;3.44;51.00;102135.34;4339337;28;9999925;-46
2022/03/09 06:50:11;;;;;;;18.63;8.90;;;;;;;3.42;50.97;102135.53;5032091;28;20483;-45
2022/03/09 06:52:39;;;;;;;17.17;8.45;;;;;;;3.38;51.00;102142.28;5049088;28;20040;-45
2022/03/09 06:55:08;;;;;;;18.10;8.55;;;;;;;3.32;51.31;102144.91;5070187;28;20055;-46
2022/03/09 06:57:37;;;;;;;15.60;8.90;;;;;;;3.29;51.46;102146.09;5053550;28;20095;-45
2022/03/09 07:00:11;;;;;;;19.77;9.45;;;;;;;3.27;51.87;102153.56;5059871;28;20368;-47
2022/03/09 07:02:42;;;;;;;15.35;8.50;;;;;;;3.27;51.58;102147.31;5049623;28;20088;-45
2022/03/09 07:05:11;;;;;;;14.10;8.43;;;;;;;3.27;51.75;102148.19;5031769;28;20076;-44
2022/03/09 07:07:39;;;;;;;15.73;9.02;;;;;;;3.29;51.91;102156.88;5060851;28;20417;-47
2022/03/09 07:10:13;;;;;;;18.55;9.35;;;;;;;3.30;52.28;102152.34;5051394;28;20043;-47
2022/03/09 07:12:44;;;;;;;17.90;8.48;;;;;;;3.34;52.21;102159.88;5048872;28;20055;-45
2022/03/09 07:15:12;;;;;;;18.08;9.40;;;;;;;3.36;52.17;102163.19;5049109;28;20127;-48
2022/03/09 07:17:40;;;;;;;20.23;9.80;;;;;;;3.35;51.82;102163.41;5035828;28;20067;-46
2022/03/09 07:20:09;;;;;;;17.38;9.35;;;;;;;3.34;51.67;102173.34;5053820;28;20036;-46
2022/03/09 07:22:39;;;;;;;18.13;9.40;;;;;;;3.40;51.51;102169.06;5052383;28;20037;-44
2022/03/09 07:25:08;;;;;;;17.15;9.88;;;;;;;3.38;51.54;102166.53;5034868;28;20045;-47
2022/03/09 07:27:36;;;;;;;15.80;9.10;;;;;;;3.37;52.02;102170.28;5069496;28;20051;-44
2022/03/09 07:30:04;;;;;;;16.83;9.13;;;;;;;3.46;51.74;102171.00;5051343;28;20124;-47
2022/03/09 07:32:32;;;;;;;16.65;9.25;;;;;;;3.54;51.24;102170.91;5050367;28;20057;-46
2022/03/09 07:35:20;;;;;;;17.30;9.32;;;;;;;3.61;51.09;102168.31;5049491;28;20060;-41
2022/03/09 07:37:51;;;;;;;15.15;8.93;;;;;;;3.66;51.50;102167.75;5049532;28;20352;-43
2022/03/09 07:40:20;;;;;;;22.45;8.75;;;;;;;3.69;51.74;102161.97;5057622;28;20057;-44
2022/03/09 07:42:48;;;;;;;14.80;9.07;;;;;;;3.72;51.33;102164.28;5070596;28;20501;-47
2022/03/09 07:45:17;;;;;;;25.85;10.10;;;;;;;3.69;50.92;102162.78;5037809;28;20041;-46
2022/03/09 07:47:45;;;;;;;14.48;9.00;;;;;;;3.70;50.80;102169.84;5072449;28;20513;-42
2022/03/09 07:50:13;;;;;;;18.08;9.40;;;;;;;3.71;50.58;102171.53;5070440;28;20068;-44
2022/03/09 07:52:40;;;;;;;17.90;8.98;;;;;;;3.74;50.70;102163.06;5072271;28;20513;-44
2022/03/09 07:55:09;;;;;;;16.52;9.02;;;;;;;3.77;50.91;102164.53;5072164;28;20081;-44
2022/03/09 07:57:36;;;;;;;14.25;8.40;;;;;;;3.82;50.97;102162.09;5072449;28;20059;-43
2022/03/09 08:00:06;;;;;;;17.42;8.55;;;;;;;3.88;50.12;102171.31;5063444;28;20049;-44
2022/03/09 08:02:41;;;;;;;14.32;8.70;;;;;;;3.90;50.36;102167.38;5052109;28;20049;-42
2022/03/09 08:05:11;;;;;;;18.58;8.77;;;;;;;3.94;50.65;102175.91;5054832;28;20040;-43
2022/03/09 08:07:39;;;;;;;16.65;9.10;;;;;;;3.98;50.36;102164.56;5055987;28;20123;-44
2022/03/09 08:10:09;;;;;;;17.83;9.13;;;;;;;4.00;50.48;102172.47;5057270;28;20456;-42
2022/03/09 08:12:37;;;;;;;14.23;8.65;;;;;;;4.03;50.68;102169.38;5055767;28;20091;-43
2022/03/09 08:15:05;;;;;;;13.63;8.90;;;;;;;4.04;50.78;102173.75;5056065;28;20041;-44
2022/03/09 08:17:33;;;;;;;18.42;9.35;;;;;;;4.05;50.67;102178.13;5055917;28;20049;-43
2022/03/09 08:20:02;;;;;;;17.38;9.77;;;;;;;4.08;51.13;102172.34;5048429;28;20040;-44
2022/03/09 08:22:30;;;;;;;15.38;9.18;;;;;;;4.11;50.09;102181.91;5060308;28;20561;-46
2022/03/09 08:24:57;;;;;;;17.10;8.75;;;;;;;4.18;51.44;102180.94;5055848;28;20051;-43
2022/03/09 08:27:25;;;;;;;18.27;9.13;;;;;;;4.23;50.92;102186.63;5038162;28;20041;-45
2022/03/09 08:29:54;;;;;;;15.10;9.27;;;;;;;4.26;50.92;102185.41;5056876;28;20041;-44
2022/03/09 08:32:22;;;;;;;16.98;9.27;;;;;;;4.27;50.81;102184.38;5055829;28;20453;-46
2022/03/09 08:34:50;;;;;;;19.38;9.15;;;;;;;4.29;50.60;102186.88;5055523;28;20040;-44
2022/03/09 08:37:18;;;;;;;15.98;9.35;;;;;;;4.31;50.34;102199.16;5055662;28;20059;-45
2022/03/09 08:39:48;;;;;;;13.95;9.27;;;;;;;4.34;50.21;102190.66;5065483;28;20028;-45
2022/03/09 08:42:18;;;;;;;15.40;9.20;;;;;;;4.36;51.03;102193.19;5075249;28;20044;-44
2022/03/09 08:44:46;;;;;;;22.58;9.85;;;;;;;4.45;50.62;102192.84;5075282;28;20041;-43
2022/03/09 08:47:14;;;;;;;15.27;8.55;;;;;;;4.51;50.30;102193.09;5075245;28;20040;-46
2022/03/09 08:49:42;;;;;;;20.48;8.88;;;;;;;4.54;50.25;102190.00;5073576;28;20062;-47
2022/03/09 08:52:11;;;;;;;18.63;8.98;;;;;;;4.57;49.97;102187.78;5057762;28;20037;-45
2022/03/09 08:54:40;;;;;;;16.63;9.02;;;;;;;4.58;49.82;102186.72;5041076;28;20128;-43
2022/03/09 08:57:08;;;;;;;18.15;9.95;;;;;;;4.62;49.22;102188.03;5037742;28;20049;-43
2022/03/09 08:59:36;;;;;;;15.40;9.02;;;;;;;4.65;49.43;102187.63;5055297;28;20045;-44
2022/03/09 09:02:04;;;;;;;15.60;9.57;;;;;;;4.67;49.69;102180.16;5055994;28;20045;-45
2022/03/09 09:04:34;;;;;;;18.92;9.38;;;;;;;4.70;50.03;102182.47;5055246;28;20087;-46
2022/03/09 09:07:02;;;;;;;16.10;9.70;;;;;;;4.72;49.49;102173.34;5075052;28;20037;-45
2022/03/09 09:09:29;;;;;;;16.08;9.35;;;;;;;4.75;49.89;102187.28;5074778;28;20051;-44
2022/03/09 09:11:59;;;;;;;16.73;9.38;;;;;;;4.78;50.18;102180.66;5074641;28;20044;-46
2022/03/09 09:14:27;;;;;;;16.63;9.30;;;;;;;4.81;50.14;102193.75;5072990;28;20141;-45
2022/03/09 09:16:55;;;;;;;14.93;9.65;;;;;;;4.88;50.92;102189.25;5074467;28;20490;-45
2022/03/09 09:19:23;;;;;;;16.85;9.82;;;;;;;4.91;50.90;102184.31;5056914;28;20067;-45
2022/03/09 09:21:51;;;;;;;15.00;9.35;;;;;;;4.96;50.83;102181.00;5052035;28;20048;-46
2022/03/09 09:24:19;;;;;;;22.00;9.98;;;;;;;4.98;50.73;102178.94;5054761;28;20047;-46
2022/03/09 09:26:47;;;;;;;19.10;9.95;;;;;;;5.07;49.54;102185.84;5036891;28;20064;-46
2022/03/09 09:29:23;;;;;;;16.58;10.00;;;;;;;5.14;49.32;102183.19;5055113;28;20037;-47
2022/03/09 09:31:50;;;;;;;16.98;10.40;;;;;;;5.13;47.61;102176.97;5074616;28;20047;-48
2022/03/09 09:34:18;;;;;;;25.88;10.73;;;;;;;5.17;47.97;102182.81;5074776;28;20048;-47
2022/03/09 09:36:48;;;;;;;17.50;10.98;;;;;;;5.23;47.03;102183.88;5074609;28;20055;-46
2022/03/09 09:39:17;;;;;;;15.60;10.00;;;;;;;5.25;45.99;102189.94;5074730;28;20040;-46
2022/03/09 09:41:46;;;;;;;17.50;10.00;;;;;;;5.28;46.35;102187.66;5039722;28;20052;-46
2022/03/09 09:44:15;;;;;;;22.02;10.35;;;;;;;5.37;47.13;102190.19;5036424;28;20128;-43
2022/03/09 09:46:43;;;;;;;17.42;10.52;;;;;;;5.39;47.72;102185.41;5036797;28;20087;-44
2022/03/09 09:49:13;;;;;;;21.27;11.80;;;;;;;5.40;45.83;102190.63;5054473;28;20045;-46
2022/03/09 09:51:43;;;;;;;19.10;10.80;;;;;;;5.42;46.01;102188.56;5054053;28;20515;-46
2022/03/09 09:54:13;;;;;;;15.80;11.23;;;;;;;5.42;46.01;102180.44;5055404;28;20091;-46
2022/03/09 09:56:42;;;;;;;17.20;10.90;;;;;;;5.44;46.13;102181.09;5053990;28;20042;-46
2022/03/09 09:59:10;;;;;;;18.33;11.55;;;;;;;5.47;46.55;102182.56;5052767;28;20048;-45
2022/03/09 10:01:39;;;;;;;22.20;11.95;;;;;;;5.50;46.41;102187.56;5051664;28;20096;-46
2022/03/09 10:04:08;;;;;;;21.15;12.65;;;;;;;5.54;46.67;102180.72;5054017;28;20110;-46
2022/03/09 10:06:37;;;;;;;18.88;11.25;;;;;;;5.59;46.88;102185.53;5049577;28;20041;-46
2022/03/09 10:09:07;;;;;;;18.25;12.30;;;;;;;5.63;46.58;102190.34;5045084;28;20402;-47
2022/03/09 10:11:53;;;;;;;18.75;12.13;;;;;;;5.68;46.68;102195.13;5055960;28;20124;-46
2022/03/09 10:14:48;;;;;;;19.58;11.65;;;;;;;5.71;46.80;102183.91;5055184;28;20041;-44
2022/03/09 10:17:17;;;;;;;29.85;12.88;;;;;;;5.74;47.11;102184.31;5071580;28;20499;-45
2022/03/09 10:19:50;;;;;;;23.92;15.23;;;;;;;5.81;47.16;102183.53;5055338;28;20040;-44
2022/03/09 10:22:25;;;;;;;21.73;13.15;;;;;;;5.88;47.30;102184.38;5073279;28;20548;-47
2022/03/09 10:25:13;;;;;;;26.10;14.23;;;;;;;5.96;47.04;102182.38;5073365;28;20048;-45
2022/03/09 10:27:54;;;;;;;18.42;11.85;;;;;;;6.04;47.40;102177.78;5071051;28;20041;-44
2022/03/09 10:30:23;;;;;;;22.27;12.80;;;;;;;6.11;47.85;102174.09;5055811;28;20072;-45
2022/03/09 10:32:58;;;;;;;20.02;12.48;;;;;;;6.23;47.84;102168.91;5073255;28;20130;-45
2022/03/09 10:35:31;;;;;;;22.75;11.50;;;;;;;6.39;46.88;102171.19;5073472;28;20079;-48
2022/03/09 10:38:01;;;;;;;25.13;13.35;;;;;;;6.53;47.06;102165.81;5059961;28;20079;-48
2022/03/09 10:40:31;;;;;;;31.02;13.20;;;;;;;6.57;48.74;102162.47;5036001;28;20128;-45
2022/03/09 10:43:12;;;;;;;21.10;12.60;;;;;;;6.56;47.50;102157.25;5035676;28;20041;-45
2022/03/09 10:46:06;;;;;;;24.10;12.75;;;;;;;6.59;47.16;102154.97;5035621;28;20099;-46
2022/03/09 10:48:50;;;;;;;23.98;13.98;;;;;;;6.68;47.19;102152.88;5066918;28;20040;-48
2022/03/09 10:51:32;;;;;;;25.42;14.43;;;;;;;6.75;46.83;102148.28;5073490;28;20180;-47
2022/03/09 10:54:03;;;;;;;26.38;13.60;;;;;;;6.77;46.80;102145.38;5055787;28;20040;-47
2022/03/09 10:56:32;;;;;;;21.05;12.57;;;;;;;6.82;47.33;102143.69;5071102;28;20053;-47
2022/03/09 10:59:14;;;;;;;88.43;20.25;;;;;;;6.93;49.61;102144.13;5035483;28;20116;-51
2022/03/09 11:01:43;;;;;;;143.07;25.52;;;;;;;6.98;52.15;102150.56;5052630;28;20057;-48
2022/03/09 11:04:16;;;;;;;112.15;21.20;;;;;;;7.03;51.60;102150.75;5052695;28;20407;-47
2022/03/09 11:06:46;;;;;;;26.02;15.27;;;;;;;7.08;48.62;102149.28;5053589;28;20051;-51
2022/03/09 11:09:17;;;;;;;133.13;23.60;;;;;;;7.08;49.99;102152.00;5072678;28;20487;-47
2022/03/09 11:11:48;;;;;;;22.13;13.30;;;;;;;7.07;48.31;102156.59;5055309;28;20132;-49
2022/03/09 11:14:17;;;;;;;22.05;13.50;;;;;;;7.10;48.12;102161.59;5054993;28;20076;-51
2022/03/09 11:16:46;;;;;;;20.77;13.73;;;;;;;7.16;48.26;102155.28;5050839;28;20041;-49
2022/03/09 11:19:15;;;;;;;23.55;13.43;;;;;;;7.21;48.09;102150.06;5035234;28;20463;-50
2022/03/09 11:21:42;;;;;;;18.88;12.85;;;;;;;7.22;48.53;102149.03;5035195;28;20041;-47
2022/03/09 11:24:19;;;;;;;23.45;15.40;;;;;;;7.22;47.30;102153.63;5035167;28;20052;-47
2022/03/09 11:26:54;;;;;;;22.83;15.05;;;;;;;7.23;47.41;102150.69;5036730;28;20064;-48
2022/03/09 11:29:49;;;;;;;28.25;14.63;;;;;;;7.25;48.05;102148.59;5052820;28;20045;-50
2022/03/09 11:32:34;;;;;;;21.80;14.63;;;;;;;7.30;47.95;102141.72;5051444;28;20053;-47
2022/03/09 11:35:05;;;;;;;24.58;15.65;;;;;;;7.34;47.16;102138.38;5019222;28;20037;-47
2022/03/09 11:37:37;;;;;;;24.33;15.65;;;;;;;7.39;47.67;102135.03;5066636;28;20044;-46